Terminal Aerodrome Forecast
Issued by NWS Cleveland, OH

Home | Current Version | Previous Version | Graphics & Text | Print | Product List | Glossary On
Versions: 1 2 3 4 5 6 7 8 9 10 11 12 13 14 15 16 17 18 19 20 21
000
FTUS41 KCLE 170200 AAA
TAFMFD
TAF AMD
KMFD 170203Z 1702/1724 24015G25KT P6SM OVC006
      TEMPO 1702/1705 4SM -SHRA OVC005
     FM171000 25015G25KT P6SM OVC012
     FM171800 26012G22KT P6SM OVC020=

USA.gov is the U.S. government's official web portal to all federal, state and local government web resources and services.